Time,TemperatureF,DewpointF,PressureIn,WindDirection,WindDirectionDegrees,WindSpeedMPH,WindSpeedGustMPH,Humidity,HourlyPrecipIn,Conditions,Clouds,dailyrainin,SoftwareType,DateUTC
2013-04-01 00:02:00,18.0,9.0,-100.00,NNW,340,11.0,19.0,68,0.00,,,0.00,,2013-04-01 05:02:00,
2013-04-01 00:12:00,17.0,9.0,-100.00,NNW,330,11.0,17.0,69,0.00,,,0.00,,2013-04-01 05:12:00,
2013-04-01 00:22:00,17.0,9.0,-100.00,NW,320,10.0,16.0,69,0.00,,,0.00,,2013-04-01 05:22:00,
2013-04-01 00:32:00,17.0,9.0,-100.00,NW,325,12.0,16.0,69,0.00,,,0.00,,2013-04-01 05:32:00,
2013-04-01 00:42:00,17.0,9.0,-100.00,NNW,335,10.0,16.0,69,0.00,,,0.00,,2013-04-01 05:42:00,
2013-04-01 00:52:00,17.0,9.0,-100.00,NW,320,11.0,16.0,70,0.00,,,0.00,,2013-04-01 05:52:00,
2013-04-01 01:02:00,17.0,9.0,-100.00,NNW,335,11.0,15.0,70,0.00,,,0.00,,2013-04-01 06:02:00,
2013-04-01 01:12:00,16.0,9.0,-100.00,NW,325,12.0,16.0,71,0.00,,,0.00,,2013-04-01 06:12:00,
2013-04-01 01:22:00,16.0,9.0,-100.00,NW,325,11.0,15.0,72,0.00,,,0.00,,2013-04-01 06:22:00,
2013-04-01 01:33:00,16.0,9.0,-100.00,NW,320,9.0,15.0,72,0.00,,,0.00,,2013-04-01 06:33:00,
2013-04-01 01:42:00,16.0,9.0,-100.00,NNW,340,11.0,14.0,73,0.00,,,0.00,,2013-04-01 06:42:00,
2013-04-01 01:52:00,16.0,9.0,-100.00,NNW,330,11.0,14.0,73,0.00,,,0.00,,2013-04-01 06:52:00,
2013-04-01 02:02:00,16.0,9.0,-100.00,NNW,335,10.0,16.0,74,0.00,,,0.00,,2013-04-01 07:02:00,
2013-04-01 02:12:00,16.0,9.0,-100.00,NNW,335,9.0,14.0,74,0.00,,,0.00,,2013-04-01 07:12:00,
2013-04-01 02:22:00,16.0,9.0,-100.00,NNW,330,8.0,14.0,75,0.00,,,0.00,,2013-04-01 07:22:00,
2013-04-01 02:32:00,15.0,9.0,-100.00,NW,325,9.0,12.0,75,0.00,,,0.00,,2013-04-01 07:32:00,
2013-04-01 02:42:00,15.0,9.0,-100.00,NNW,330,7.0,11.0,76,0.00,,,0.00,,2013-04-01 07:42:00,
2013-04-01 02:52:00,15.0,9.0,-100.00,NW,325,8.0,12.0,76,0.00,,,0.00,,2013-04-01 07:52:00,
2013-04-01 03:02:00,15.0,9.0,-100.00,NNW,330,10.0,14.0,76,0.00,,,0.00,,2013-04-01 08:02:00,
2013-04-01 03:12:00,15.0,9.0,-100.00,NNW,340,9.0,14.0,76,0.00,,,0.00,,2013-04-01 08:12:00,
2013-04-01 03:22:00,15.0,9.0,-100.00,NNW,335,11.0,14.0,76,0.00,,,0.00,,2013-04-01 08:22:00,
2013-04-01 03:32:00,15.0,9.0,-100.00,NNW,330,9.0,14.0,76,0.00,,,0.00,,2013-04-01 08:32:00,
2013-04-01 03:43:00,15.0,9.0,-100.00,NW,325,9.0,12.0,76,0.00,,,0.00,,2013-04-01 08:43:00,
2013-04-01 03:52:00,14.0,9.0,-100.00,NNW,330,7.0,11.0,76,0.00,,,0.00,,2013-04-01 08:52:00,
2013-04-01 04:02:00,14.0,9.0,-100.00,NW,310,7.0,10.0,77,0.00,,,0.00,,2013-04-01 09:02:00,
2013-04-01 04:12:00,14.0,9.0,-100.00,NW,310,6.0,10.0,77,0.00,,,0.00,,2013-04-01 09:12:00,
2013-04-01 04:22:00,14.0,9.0,-100.00,WNW,295,6.0,9.0,77,0.00,,,0.00,,2013-04-01 09:22:00,
2013-04-01 04:33:00,13.0,7.0,-100.00,NW,305,7.0,10.0,78,0.00,,,0.00,,2013-04-01 09:33:00,
2013-04-01 04:42:00,13.0,9.0,-100.00,NW,315,7.0,10.0,78,0.00,,,0.00,,2013-04-01 09:42:00,
2013-04-01 04:52:00,14.0,9.0,-100.00,NW,325,9.0,11.0,78,0.00,,,0.00,,2013-04-01 09:52:00,
2013-04-01 05:03:00,14.0,9.0,-100.00,NW,325,9.0,15.0,78,0.00,,,0.00,,2013-04-01 10:03:00,
2013-04-01 05:12:00,14.0,9.0,-100.00,NW,325,9.0,13.0,78,0.00,,,0.00,,2013-04-01 10:12:00,
2013-04-01 05:23:00,14.0,9.0,-100.00,NW,320,11.0,15.0,78,0.00,,,0.00,,2013-04-01 10:23:00,
2013-04-01 05:33:00,14.0,9.0,-100.00,NW,320,9.0,14.0,79,0.00,,,0.00,,2013-04-01 10:33:00,
2013-04-01 05:42:00,14.0,9.0,-100.00,NW,320,10.0,14.0,79,0.00,,,0.00,,2013-04-01 10:42:00,
2013-04-01 05:53:00,14.0,9.0,-100.00,NNW,330,9.0,17.0,79,0.00,,,0.00,,2013-04-01 10:53:00,
2013-04-01 06:03:00,13.0,9.0,-100.00,NW,325,8.0,13.0,79,0.00,,,0.00,,2013-04-01 11:03:00,
2013-04-01 06:12:00,13.0,9.0,-100.00,NW,320,9.0,15.0,80,0.00,,,0.00,,2013-04-01 11:12:00,
2013-04-01 06:23:00,13.0,9.0,-100.00,NW,310,9.0,12.0,80,0.00,,,0.00,,2013-04-01 11:23:00,
2013-04-01 06:32:00,13.0,9.0,-100.00,NW,310,7.0,12.0,80,0.00,,,0.00,,2013-04-01 11:32:00,
2013-04-01 06:42:00,13.0,9.0,-100.00,NW,310,7.0,12.0,81,0.00,,,0.00,,2013-04-01 11:42:00,
2013-04-01 06:52:00,13.0,9.0,-100.00,NW,310,7.0,11.0,81,0.00,,,0.00,,2013-04-01 11:52:00,
2013-04-01 07:02:00,13.0,9.0,-100.00,NW,315,7.0,11.0,81,0.00,,,0.00,,2013-04-01 12:02:00,
2013-04-01 07:12:00,13.0,9.0,-100.00,NW,315,7.0,11.0,81,0.00,,,0.00,,2013-04-01 12:12:00,
2013-04-01 07:22:00,13.0,9.0,-100.00,NW,320,6.0,11.0,81,0.00,,,0.00,,2013-04-01 12:22:00,
2013-04-01 07:32:00,13.0,9.0,-100.00,NW,325,6.0,11.0,81,0.00,,,0.00,,2013-04-01 12:32:00,
2013-04-01 07:42:00,13.0,9.0,-100.00,WNW,300,7.0,12.0,81,0.00,,,0.00,,2013-04-01 12:42:00,
2013-04-01 07:52:00,13.0,9.0,-100.00,WNW,290,9.0,11.0,81,0.00,,,0.00,,2013-04-01 12:52:00,
2013-04-01 08:02:00,13.0,9.0,-100.00,WNW,300,8.0,11.0,82,0.00,,,0.00,,2013-04-01 13:02:00,
2013-04-01 08:12:00,14.0,9.0,-100.00,NW,310,9.0,11.0,82,0.00,,,0.00,,2013-04-01 13:12:00,
2013-04-01 08:22:00,14.0,9.0,-100.00,WNW,300,10.0,14.0,82,0.00,,,0.00,,2013-04-01 13:22:00,
2013-04-01 08:32:00,13.0,9.0,-100.00,WNW,290,8.0,11.0,82,0.00,,,0.00,,2013-04-01 13:32:00,
2013-04-01 08:42:00,14.0,9.0,-100.00,WNW,300,8.0,11.0,82,0.00,,,0.00,,2013-04-01 13:42:00,
2013-04-01 08:52:00,14.0,10.0,-100.00,NW,310,10.0,13.0,82,0.00,,,0.00,,2013-04-01 13:52:00,
2013-04-01 09:03:00,15.0,10.0,-100.00,WNW,290,9.0,13.0,82,0.00,,,0.00,,2013-04-01 14:03:00,
2013-04-01 09:12:00,15.0,10.0,-100.00,WNW,295,11.0,14.0,82,0.00,,,0.00,,2013-04-01 14:12:00,
2013-04-01 09:22:00,16.0,12.0,-100.00,NW,310,13.0,17.0,81,0.00,,,0.00,,2013-04-01 14:22:00,
2013-04-01 09:32:00,16.0,12.0,-100.00,NW,310,12.0,15.0,81,0.00,,,0.00,,2013-04-01 14:32:00,
2013-04-01 09:42:00,17.0,12.0,-100.00,NW,325,11.0,15.0,79,0.00,,,0.00,,2013-04-01 14:42:00,
2013-04-01 09:52:00,17.0,12.0,-100.00,NW,325,15.0,20.0,78,0.00,,,0.00,,2013-04-01 14:52:00,
2013-04-01 10:02:00,17.0,12.0,-100.00,North,350,12.0,17.0,77,0.00,,,0.00,,2013-04-01 15:02:00,
2013-04-01 10:12:00,18.0,12.0,-100.00,NW,320,12.0,18.0,76,0.00,,,0.00,,2013-04-01 15:12:00,
2013-04-01 10:22:00,19.0,12.0,-100.00,NNW,330,11.0,15.0,75,0.00,,,0.00,,2013-04-01 15:22:00,
2013-04-01 10:33:00,19.0,12.0,-100.00,NNW,335,14.0,17.0,74,0.00,,,0.00,,2013-04-01 15:33:00,
2013-04-01 10:43:00,20.0,12.0,-100.00,NNW,340,13.0,18.0,73,0.00,,,0.00,,2013-04-01 15:43:00,
2013-04-01 10:53:00,20.0,12.0,-100.00,NW,325,14.0,17.0,72,0.00,,,0.00,,2013-04-01 15:53:00,
2013-04-01 11:02:00,20.0,12.0,-100.00,NW,320,12.0,17.0,72,0.00,,,0.00,,2013-04-01 16:02:00,
2013-04-01 11:13:00,20.0,12.0,-100.00,NNW,335,14.0,17.0,72,0.00,,,0.00,,2013-04-01 16:13:00,
2013-04-01 11:23:00,21.0,12.0,-100.00,NNW,330,14.0,19.0,70,0.00,,,0.00,,2013-04-01 16:23:00,
2013-04-01 11:33:00,22.0,14.0,-100.00,NNW,345,11.0,18.0,69,0.00,,,0.00,,2013-04-01 16:33:00,
2013-04-01 11:42:00,21.0,12.0,-100.00,NNW,340,15.0,20.0,68,0.00,,,0.00,,2013-04-01 16:42:00,
2013-04-01 11:52:00,23.0,14.0,-100.00,NW,315,12.0,17.0,67,0.00,,,0.00,,2013-04-01 16:52:00,
2013-04-01 12:03:00,24.0,14.0,-100.00,NW,305,11.0,19.0,66,0.00,,,0.00,,2013-04-01 17:03:00,
2013-04-01 12:12:00,22.0,12.0,-100.00,NNW,340,16.0,21.0,65,0.00,,,0.00,,2013-04-01 17:12:00,
2013-04-01 12:22:00,24.0,14.0,-100.00,NNW,335,13.0,17.0,64,0.00,,,0.00,,2013-04-01 17:22:00,
2013-04-01 12:32:00,24.0,14.0,-100.00,NW,320,11.0,18.0,63,0.00,,,0.00,,2013-04-01 17:32:00,
2013-04-01 12:42:00,25.0,14.0,-100.00,NNW,335,12.0,17.0,62,0.00,,,0.00,,2013-04-01 17:42:00,
2013-04-01 12:52:00,26.0,14.0,-100.00,NW,305,9.0,16.0,61,0.00,,,0.00,,2013-04-01 17:52:00,
2013-04-01 13:02:00,26.0,14.0,-100.00,WNW,295,12.0,16.0,61,0.00,,,0.00,,2013-04-01 18:02:00,
2013-04-01 13:12:00,26.0,14.0,-100.00,NW,305,11.0,17.0,62,0.00,,,0.00,,2013-04-01 18:12:00,
2013-04-01 13:22:00,26.0,14.0,-100.00,NW,325,14.0,17.0,60,0.00,,,0.00,,2013-04-01 18:22:00,
2013-04-01 13:32:00,27.0,16.0,-100.00,WNW,295,14.0,18.0,61,0.00,,,0.00,,2013-04-01 18:32:00,
2013-04-01 13:42:00,27.0,14.0,-100.00,NNW,330,12.0,17.0,59,0.00,,,0.00,,2013-04-01 18:42:00,
2013-04-01 13:52:00,27.0,16.0,-100.00,NW,310,11.0,16.0,59,0.00,,,0.00,,2013-04-01 18:52:00,
2013-04-01 14:03:00,27.0,14.0,-100.00,NW,315,14.0,19.0,58,0.00,,,0.00,,2013-04-01 19:03:00,
2013-04-01 14:12:00,28.0,14.0,-100.00,NNW,330,12.0,17.0,57,0.00,,,0.00,,2013-04-01 19:12:00,
2013-04-01 14:23:00,28.0,14.0,-100.00,WNW,295,12.0,17.0,57,0.00,,,0.00,,2013-04-01 19:23:00,
2013-04-01 14:32:00,27.0,14.0,-100.00,NNW,330,15.0,19.0,57,0.00,,,0.00,,2013-04-01 19:32:00,
2013-04-01 14:42:00,29.0,16.0,-100.00,NW,310,12.0,17.0,55,0.00,,,0.00,,2013-04-01 19:42:00,
2013-04-01 14:52:00,28.0,14.0,-100.00,WNW,300,14.0,19.0,57,0.00,,,0.00,,2013-04-01 19:52:00,
2013-04-01 15:02:00,29.0,14.0,-100.00,NW,320,12.0,17.0,54,0.00,,,0.00,,2013-04-01 20:02:00,
2013-04-01 15:22:00,28.0,14.0,-100.00,WNW,295,14.0,21.0,56,0.00,,,0.00,,2013-04-01 20:22:00,
2013-04-01 15:32:00,29.0,14.0,-100.00,WNW,290,15.0,19.0,55,0.00,,,0.00,,2013-04-01 20:32:00,
2013-04-01 15:42:00,29.0,14.0,-100.00,NW,305,14.0,18.0,55,0.00,,,0.00,,2013-04-01 20:42:00,
2013-04-01 15:52:00,28.0,14.0,-100.00,NW,315,17.0,21.0,56,0.00,,,0.00,,2013-04-01 20:52:00,
2013-04-01 16:02:00,29.0,14.0,-100.00,NW,305,12.0,17.0,54,0.00,,,0.00,,2013-04-01 21:02:00,
2013-04-01 16:12:00,29.0,14.0,-100.00,NW,325,14.0,17.0,53,0.00,,,0.00,,2013-04-01 21:12:00,
2013-04-01 16:22:00,28.0,14.0,-100.00,WNW,295,15.0,18.0,54,0.00,,,0.00,,2013-04-01 21:22:00,
2013-04-01 16:32:00,28.0,14.0,-100.00,NW,310,13.0,21.0,54,0.00,,,0.00,,2013-04-01 21:32:00,
2013-04-01 16:43:00,28.0,14.0,-100.00,WNW,300,15.0,20.0,54,0.00,,,0.00,,2013-04-01 21:43:00,
2013-04-01 16:52:00,28.0,14.0,-100.00,WNW,295,15.0,22.0,54,0.00,,,0.00,,2013-04-01 21:52:00,
2013-04-01 17:02:00,28.0,14.0,-100.00,WNW,295,12.0,19.0,54,0.00,,,0.00,,2013-04-01 22:02:00,
2013-04-01 17:12:00,29.0,14.0,-100.00,WNW,300,12.0,19.0,54,0.00,,,0.00,,2013-04-01 22:12:00,
2013-04-01 17:22:00,28.0,14.0,-100.00,WNW,295,16.0,21.0,54,0.00,,,0.00,,2013-04-01 22:22:00,
2013-04-01 17:33:00,28.0,14.0,-100.00,WNW,300,12.0,18.0,53,0.00,,,0.00,,2013-04-01 22:33:00,
2013-04-01 17:42:00,28.0,12.0,-100.00,NW,305,16.0,18.0,53,0.00,,,0.00,,2013-04-01 22:42:00,
2013-04-01 17:52:00,28.0,12.0,-100.00,NW,320,13.0,17.0,52,0.00,,,0.00,,2013-04-01 22:52:00,
2013-04-01 18:02:00,29.0,12.0,-100.00,NW,315,11.0,18.0,51,0.00,,,0.00,,2013-04-01 23:02:00,
2013-04-01 18:12:00,28.0,14.0,-100.00,NNW,335,11.0,17.0,52,0.00,,,0.00,,2013-04-01 23:12:00,
2013-04-01 18:22:00,28.0,12.0,-100.00,NW,310,13.0,18.0,53,0.00,,,0.00,,2013-04-01 23:22:00,
2013-04-01 18:32:00,28.0,14.0,-100.00,NW,310,12.0,18.0,54,0.00,,,0.00,,2013-04-01 23:32:00,
2013-04-01 18:42:00,28.0,14.0,-100.00,NW,305,14.0,17.0,56,0.00,,,0.00,,2013-04-01 23:42:00,
2013-04-01 18:52:00,27.0,14.0,-100.00,NW,310,12.0,16.0,56,0.00,,,0.00,,2013-04-01 23:52:00,
2013-04-01 19:02:00,27.0,14.0,-100.00,NW,315,11.0,16.0,56,0.00,,,0.00,,2013-04-02 00:02:00,
2013-04-01 19:12:00,27.0,14.0,-100.00,NW,320,10.0,16.0,57,0.00,,,0.00,,2013-04-02 00:12:00,
2013-04-01 19:22:00,27.0,14.0,-100.00,NW,310,11.0,14.0,58,0.00,,,0.00,,2013-04-02 00:22:00,
2013-04-01 19:32:00,26.0,14.0,-100.00,NW,310,13.0,16.0,60,0.00,,,0.00,,2013-04-02 00:32:00,
2013-04-01 19:42:00,26.0,14.0,-100.00,NW,310,11.0,15.0,61,0.00,,,0.00,,2013-04-02 00:42:00,
2013-04-01 19:52:00,25.0,14.0,-100.00,NW,305,9.0,11.0,63,0.00,,,0.00,,2013-04-02 00:52:00,
2013-04-01 20:02:00,25.0,14.0,-100.00,NW,310,11.0,14.0,64,0.00,,,0.00,,2013-04-02 01:02:00,
2013-04-01 20:12:00,24.0,14.0,-100.00,WNW,300,8.0,13.0,66,0.00,,,0.00,,2013-04-02 01:12:00,
2013-04-01 20:22:00,24.0,16.0,-100.00,WNW,290,8.0,11.0,69,0.00,,,0.00,,2013-04-02 01:22:00,
2013-04-01 20:32:00,23.0,16.0,-100.00,WNW,290,10.0,12.0,72,0.00,,,0.00,,2013-04-02 01:32:00,
2013-04-01 20:42:00,23.0,16.0,-100.00,WNW,290,7.0,13.0,74,0.00,,,0.00,,2013-04-02 01:42:00,
2013-04-01 20:52:00,22.0,16.0,-100.00,WNW,300,8.0,11.0,76,0.00,,,0.00,,2013-04-02 01:52:00,
2013-04-01 21:02:00,22.0,16.0,-100.00,NW,305,9.0,11.0,77,0.00,,,0.00,,2013-04-02 02:02:00,
2013-04-01 21:12:00,22.0,16.0,-100.00,WNW,300,8.0,11.0,77,0.00,,,0.00,,2013-04-02 02:12:00,
2013-04-01 21:22:00,21.0,16.0,-100.00,WNW,300,7.0,11.0,78,0.00,,,0.00,,2013-04-02 02:22:00,
2013-04-01 21:32:00,21.0,16.0,-100.00,WNW,300,7.0,11.0,79,0.00,,,0.00,,2013-04-02 02:32:00,
2013-04-01 21:42:00,21.0,16.0,-100.00,WNW,295,7.0,11.0,80,0.00,,,0.00,,2013-04-02 02:42:00,
2013-04-01 21:52:00,20.0,16.0,-100.00,NW,305,8.0,10.0,81,0.00,,,0.00,,2013-04-02 02:52:00,
2013-04-01 22:02:00,20.0,16.0,-100.00,WNW,285,7.0,9.0,82,0.00,,,0.00,,2013-04-02 03:02:00,
2013-04-01 22:12:00,20.0,16.0,-100.00,WNW,290,7.0,11.0,82,0.00,,,0.00,,2013-04-02 03:12:00,
2013-04-01 22:22:00,20.0,16.0,-100.00,NW,305,9.0,11.0,83,0.00,,,0.00,,2013-04-02 03:22:00,
2013-04-01 22:33:00,20.0,16.0,-100.00,WNW,300,7.0,11.0,83,0.00,,,0.00,,2013-04-02 03:33:00,
2013-04-01 22:43:00,20.0,16.0,-100.00,NW,310,6.0,10.0,84,0.00,,,0.00,,2013-04-02 03:43:00,
2013-04-01 23:03:00,20.0,16.0,-100.00,NW,310,7.0,9.0,84,0.00,,,0.00,,2013-04-02 04:03:00,
2013-04-01 23:13:00,20.0,16.0,-100.00,NW,315,7.0,9.0,85,0.00,,,0.00,,2013-04-02 04:13:00,
2013-04-01 23:22:00,20.0,16.0,-100.00,NW,320,7.0,11.0,85,0.00,,,0.00,,2013-04-02 04:22:00,
2013-04-01 23:32:00,19.0,16.0,-100.00,WNW,300,6.0,9.0,85,0.00,,,0.00,,2013-04-02 04:32:00,
2013-04-01 23:42:00,19.0,16.0,-100.00,WNW,295,5.0,9.0,86,0.00,,,0.00,,2013-04-02 04:42:00,
2013-04-01 23:52:00,19.0,16.0,-100.00,NW,305,6.0,8.0,86,0.00,,,0.00,,2013-04-02 04:52:00,